首页
METAR-TAF:

METAR-TAF

机场 :

索菲亞機場

索菲亞, 保加利亚

纬度: 42-39N, 经度: 023-23E, 海拔: 586米

当前天气观测

该预报发布于21分钟前的02:00 UTC
风速16节,风向西
温度 11°C
湿度 87%
气压 1017 hPa
能见度10公里或以上
少量云层高于1900英尺
多云层高于4400英尺
小雨

METAR: LBSF 230200Z 28016KT 9999 -RA FEW019 BKN044 11/09 Q1017 NOSIG

时间: 05:21 (02:21 UTC)

预报

该预报发布于3小时和21分钟前的23:00 UTC
预报有效从23日的 00点(UTC)到 23日的 24点(UTC)
风速18节,风向西转西北
能见度10公里或以上
散云层高于1500英尺
多云层高于3000英尺
短暂存在
从 23日的 00点(UTC)到 23日的 03点(UTC)
风速20节,风向西转西北,有时为30节阵风
能見度: 5000
散云层高于1300英尺
少量云层高于3000英尺, 积雨云.
多云层高于3300英尺
阵雨
短暂存在
从 23日的 03点(UTC)到 23日的 09点(UTC)
成为
从 23日的 12点(UTC)到 23日的 14点(UTC)
风速10节,风向北转东北
成为
从 23日的 18点(UTC)到 23日的 20点(UTC)
风速8节,风向西

TAF: LBSF 222300Z 2300/2324 30018KT 9999 SCT015 BKN030 TEMPO 2300/2303 30020G30KT 5000 SHRA SCT013 FEW030CB BKN033 TEMPO 2303/2309 RA BECMG 2312/2314 03010KT BECMG 2318/2320 28008KT

超过4000个机场的气象观测和天气预报(METAR&TAF报告)。

可查询的气象台以黄色和红色小点在地图上表示。

将鼠标移到小点上方,可查看气象台名称。

然后点击查看天气观测和预报。

如需切换地图:点击带黑十字的绿色按钮放大地图;点击带横线的绿色按钮缩小地图;或者点击绿色箭头查看邻近地区的地图。


METAR-TAF: